Dash Point, Washington
Current Conditions -  °F | °C
As of 12:53 PM on Wednesday 26 Nov 2014 (Local Time) from KTIW Reporting Station
Overcast Overcast  
Wind Chill: 57°   Ceiling: 3900
Heat Index: 57°   Visibility: 10mi
Dew Point: 52°   Wind: 7mph
Humidity: 83%   Direction: 240°WSW
Pressure: 30.08"   Gusts: NA
Location:  47.2894°N, 122.391°W
Report Text: KTIW 262053Z 24006KT 10SM BKN039 OVC049 14/11 A3008 RMK AO2 SLP186 T01390111 56018
Loading
Personal Weather Stations






























Interactive Weather Map New forecast layout! Learn more

10-Day Weather Forecast

Advertisements
Track Severe Weather on mobile